Time;durP1;ratioP1;P1;durP2;ratioP2;P2;SDS_P1;SDS_P2;PMS_P1;PMS_P2;Temp;Humidity;BMP_temperature;BMP_pressure;BME280_temperature;BME280_humidity;BME280_pressure;Samples;Min_cycle;Max_cycle;Signal;HPM_P1;HPM_P2
2022/07/16 00:03:25;;;;;;;2.63;1.00;;;22.90;59.60;;;;;;5053598;28;20036;-69
2022/07/16 00:05:51;;;;;;;4.22;1.70;;;22.90;60.00;;;;;;5053626;28;20025;-70
2022/07/16 00:08:16;;;;;;;2.83;1.33;;;22.80;60.00;;;;;;5040889;28;20486;-70
2022/07/16 00:10:42;;;;;;;2.50;1.20;;;22.80;60.00;;;;;;5033388;28;20034;-70
2022/07/16 00:13:08;;;;;;;2.92;1.13;;;22.80;60.00;;;;;;5033479;28;20463;-69
2022/07/16 00:15:33;;;;;;;3.72;1.30;;;22.70;60.30;;;;;;5033561;28;20475;-70
2022/07/16 00:20:43;;;;;;;6.10;1.20;;;22.70;60.20;;;;;;5053380;28;20040;-68
2022/07/16 00:23:09;;;;;;;2.63;0.98;;;22.60;59.80;;;;;;5052696;28;20021;-71
2022/07/16 00:25:34;;;;;;;2.53;1.15;;;22.60;59.70;;;;;;5053068;28;20127;-68
2022/07/16 00:28:01;;;;;;;3.28;0.90;;;22.60;60.00;;;;;;5043365;28;20091;-68
2022/07/16 00:30:27;;;;;;;2.58;1.17;;;22.60;60.00;;;;;;5033416;28;20102;-68
2022/07/16 00:32:52;;;;;;;6.55;1.20;;;22.60;60.40;;;;;;5033101;28;20536;-68
2022/07/16 00:35:18;;;;;;;2.55;1.10;;;22.60;60.10;;;;;;5033127;28;20044;-70
2022/07/16 00:37:43;;;;;;;4.50;1.15;;;22.60;59.60;;;;;;5038630;28;20037;-68
2022/07/16 00:40:09;;;;;;;4.20;1.23;;;22.70;59.30;;;;;;5052473;28;20032;-69
2022/07/16 00:42:35;;;;;;;4.20;1.20;;;22.60;59.20;;;;;;5053180;28;20029;-68
2022/07/16 00:45:00;;;;;;;3.33;1.15;;;22.70;59.50;;;;;;5051654;28;20100;-69
2022/07/16 00:47:26;;;;;;;5.30;1.52;;;22.60;59.10;;;;;;5045905;28;20052;-69
2022/07/16 00:49:52;;;;;;;1.77;0.88;;;22.60;59.10;;;;;;5032879;28;20547;-69
2022/07/16 00:52:17;;;;;;;4.70;1.20;;;22.60;59.60;;;;;;5032959;28;20044;-68
2022/07/16 00:54:43;;;;;;;3.75;1.10;;;22.60;59.10;;;;;;5033097;28;20028;-70
2022/07/16 00:57:09;;;;;;;2.95;1.10;;;22.60;59.00;;;;;;5036549;28;20038;-68
2022/07/16 00:59:34;;;;;;;2.65;1.10;;;22.60;58.80;;;;;;5040256;28;20429;-69
2022/07/16 01:02:00;;;;;;;3.28;1.00;;;22.60;58.70;;;;;;5032860;28;20040;-68
2022/07/16 01:04:26;;;;;;;3.03;0.80;;;22.60;58.50;;;;;;5032886;28;20026;-69
2022/07/16 01:06:52;;;;;;;2.78;0.90;;;22.60;58.60;;;;;;5033535;28;20037;-68
2022/07/16 01:09:18;;;;;;;2.65;0.98;;;22.50;58.60;;;;;;5032817;28;20030;-68
2022/07/16 01:11:44;;;;;;;2.33;0.95;;;22.50;59.20;;;;;;5032900;28;20059;-68
2022/07/16 01:14:10;;;;;;;1.50;0.82;;;22.50;59.00;;;;;;5032850;28;20422;-69
2022/07/16 01:16:36;;;;;;;4.15;1.08;;;22.50;58.80;;;;;;5035982;28;20390;-69
2022/07/16 01:19:02;;;;;;;4.00;1.05;;;22.50;59.10;;;;;;5052720;28;20025;-70
2022/07/16 01:21:28;;;;;;;3.47;1.10;;;22.50;59.20;;;;;;5052566;28;20031;-69
2022/07/16 01:23:53;;;;;;;1.75;0.82;;;22.50;58.90;;;;;;5052569;28;20514;-69
2022/07/16 01:26:19;;;;;;;2.58;1.10;;;22.50;58.60;;;;;;5048971;28;20026;-68
2022/07/16 01:28:45;;;;;;;3.50;1.02;;;22.40;58.80;;;;;;5032739;28;20038;-68
2022/07/16 01:31:11;;;;;;;1.42;0.75;;;22.40;58.60;;;;;;5032596;28;20045;-68
2022/07/16 01:33:41;;;;;;;1.73;0.82;;;22.40;58.70;;;;;;5032610;28;20026;-68
2022/07/16 01:36:15;;;;;;;3.53;0.93;;;22.40;59.10;;;;;;5036900;28;20038;-68
2022/07/16 01:38:45;;;;;;;4.10;1.10;;;22.30;59.20;;;;;;5041893;28;20029;-68
2022/07/16 01:41:12;;;;;;;5.25;1.75;;;22.30;58.90;;;;;;5055810;28;20033;-69
2022/07/16 01:43:38;;;;;;;3.22;1.42;;;22.30;58.90;;;;;;5053814;28;20032;-68
2022/07/16 01:46:04;;;;;;;5.38;1.58;;;22.30;59.00;;;;;;5053773;28;20025;-68
2022/07/16 01:48:30;;;;;;;2.50;1.30;;;22.40;58.90;;;;;;5036098;28;20103;-68
2022/07/16 01:50:56;;;;;;;2.33;1.70;;;22.30;58.90;;;;;;5035948;28;20029;-70
2022/07/16 01:53:22;;;;;;;4.18;1.70;;;22.30;59.00;;;;;;5036170;28;20029;-69
2022/07/16 01:55:48;;;;;;;3.17;1.77;;;22.30;59.30;;;;;;5036067;28;20025;-68
2022/07/16 01:58:15;;;;;;;2.90;1.50;;;22.30;59.40;;;;;;5054786;28;20367;-68
2022/07/16 02:00:44;;;;;;;4.68;1.52;;;22.30;59.70;;;;;;5055847;28;20051;-69
2022/07/16 02:03:10;;;;;;;4.55;1.70;;;22.30;59.70;;;;;;5056238;28;20021;-70
2022/07/16 02:05:36;;;;;;;3.95;1.70;;;22.30;59.70;;;;;;5055475;28;20518;-68
2022/07/16 02:08:04;;;;;;;3.42;1.77;;;22.20;60.10;;;;;;5044601;28;20068;-68
2022/07/16 02:10:29;;;;;;;3.08;1.60;;;22.20;60.10;;;;;;5039922;28;20108;-68
2022/07/16 02:12:55;;;;;;;3.08;1.58;;;22.20;60.20;;;;;;5034948;28;20462;-68
2022/07/16 02:15:21;;;;;;;4.60;2.00;;;22.20;60.30;;;;;;5034846;28;20025;-68
2022/07/16 02:17:47;;;;;;;3.80;1.90;;;22.10;60.60;;;;;;5050208;28;20363;-68
2022/07/16 02:20:12;;;;;;;3.30;1.98;;;22.10;60.80;;;;;;5055238;28;20025;-68
2022/07/16 02:22:38;;;;;;;4.20;2.05;;;22.00;61.20;;;;;;5055572;28;20063;-68
2022/07/16 02:25:06;;;;;;;4.38;2.40;;;22.00;61.40;;;;;;5055502;28;20036;-68
2022/07/16 02:27:32;;;;;;;7.05;2.22;;;22.00;61.60;;;;;;5042930;28;20035;-68
2022/07/16 02:29:59;;;;;;;4.43;2.28;;;22.00;61.40;;;;;;5035398;28;20053;-68
2022/07/16 02:32:25;;;;;;;3.53;2.40;;;22.00;61.50;;;;;;5035604;28;20026;-69
2022/07/16 02:34:51;;;;;;;6.20;2.60;;;21.90;61.70;;;;;;5034678;28;20026;-68
2022/07/16 02:37:16;;;;;;;4.97;2.10;;;21.90;62.10;;;;;;5044974;28;20051;-68
2022/07/16 02:39:42;;;;;;;3.78;1.88;;;21.90;62.00;;;;;;5054829;28;20514;-70
2022/07/16 02:42:07;;;;;;;3.95;2.35;;;21.80;62.30;;;;;;5055176;28;20501;-70
2022/07/16 02:44:33;;;;;;;8.70;3.00;;;21.90;62.40;;;;;;5055259;28;20017;-68
2022/07/16 02:46:59;;;;;;;4.72;2.60;;;21.90;62.60;;;;;;5047559;28;20140;-68
2022/07/16 02:49:24;;;;;;;4.97;2.55;;;21.90;62.80;;;;;;5034796;28;20048;-70
2022/07/16 02:51:50;;;;;;;6.45;2.65;;;21.90;62.90;;;;;;5034853;28;20118;-68
2022/07/16 02:54:15;;;;;;;4.03;2.58;;;21.80;63.10;;;;;;5035206;28;20033;-70
2022/07/16 02:56:41;;;;;;;4.60;2.30;;;21.80;63.10;;;;;;5039175;28;20036;-71
2022/07/16 02:59:07;;;;;;;6.82;2.75;;;21.80;63.10;;;;;;5054720;28;20049;-71
2022/07/16 03:01:32;;;;;;;4.97;2.70;;;21.80;63.20;;;;;;5054952;28;20035;-68
2022/07/16 03:03:58;;;;;;;6.68;2.90;;;21.80;63.60;;;;;;5054440;28;20025;-68
2022/07/16 03:06:23;;;;;;;7.88;2.83;;;21.70;63.80;;;;;;5053089;28;20043;-68
2022/07/16 03:08:50;;;;;;;3.75;2.78;;;21.70;63.80;;;;;;5034896;28;20028;-68
2022/07/16 03:11:16;;;;;;;5.07;3.08;;;21.70;64.00;;;;;;5034503;28;20057;-68
2022/07/16 03:13:42;;;;;;;7.25;3.03;;;21.70;64.10;;;;;;5034568;28;20025;-68
2022/07/16 03:16:08;;;;;;;7.35;3.40;;;21.70;64.20;;;;;;5034711;28;20108;-68
2022/07/16 03:18:33;;;;;;;5.47;3.30;;;21.80;64.50;;;;;;5052818;28;20048;-68
2022/07/16 03:20:59;;;;;;;8.10;3.10;;;21.80;64.70;;;;;;5054531;28;20025;-68
2022/07/16 03:23:25;;;;;;;5.53;3.13;;;21.80;65.60;;;;;;5054079;28;20063;-69
2022/07/16 03:25:50;;;;;;;3.75;3.05;;;21.80;65.20;;;;;;5054523;28;20028;-68
2022/07/16 03:28:16;;;;;;;5.95;3.63;;;21.80;65.20;;;;;;5036806;28;20120;-68
2022/07/16 03:30:41;;;;;;;5.63;3.67;;;21.80;65.40;;;;;;5034489;28;20059;-68
2022/07/16 03:33:07;;;;;;;3.67;2.90;;;21.80;65.40;;;;;;5034020;28;20060;-68
2022/07/16 03:35:32;;;;;;;7.80;3.50;;;21.70;65.60;;;;;;5043616;28;20386;-68
2022/07/16 03:40:42;;;;;;;6.88;4.25;;;21.70;65.60;;;;;;5054442;28;20032;-68
2022/07/16 03:43:07;;;;;;;10.07;3.60;;;21.60;65.60;;;;;;5053903;28;20029;-68
2022/07/16 03:45:33;;;;;;;9.10;4.15;;;21.70;65.60;;;;;;5043942;28;20025;-68
2022/07/16 03:47:58;;;;;;;8.07;4.05;;;21.60;65.80;;;;;;5033484;28;20030;-71
2022/07/16 03:50:24;;;;;;;4.45;3.55;;;21.60;66.00;;;;;;5035039;28;20092;-70
2022/07/16 03:52:50;;;;;;;7.72;4.13;;;21.60;66.00;;;;;;5048069;28;20417;-70
2022/07/16 03:55:16;;;;;;;7.22;3.70;;;21.60;66.10;;;;;;5033890;28;20035;-68
2022/07/16 03:57:43;;;;;;;8.32;4.32;;;21.60;66.10;;;;;;5031769;28;20360;-68
2022/07/16 04:00:09;;;;;;;8.20;3.78;;;21.60;66.00;;;;;;5039082;28;20017;-71
2022/07/16 04:02:35;;;;;;;6.35;4.32;;;21.60;66.00;;;;;;5052896;28;20484;-68
2022/07/16 04:05:01;;;;;;;7.20;4.20;;;21.60;65.90;;;;;;5053837;28;20088;-68
2022/07/16 04:07:26;;;;;;;8.35;3.95;;;21.60;66.00;;;;;;5053304;28;20033;-68
2022/07/16 04:09:52;;;;;;;6.20;4.00;;;21.50;66.20;;;;;;5050201;28;20028;-68
2022/07/16 04:12:17;;;;;;;4.57;3.70;;;21.50;66.40;;;;;;5033660;28;20110;-68
2022/07/16 04:14:43;;;;;;;7.63;4.15;;;21.40;66.80;;;;;;5033458;28;20025;-69
2022/07/16 04:17:08;;;;;;;4.95;4.40;;;21.50;66.90;;;;;;5045351;28;20585;-70
2022/07/16 04:19:34;;;;;;;8.02;4.63;;;21.40;67.10;;;;;;5045100;28;20459;-68
2022/07/16 04:22:00;;;;;;;5.93;4.07;;;21.40;67.20;;;;;;5033671;28;20455;-70
2022/07/16 04:24:26;;;;;;;7.43;4.55;;;21.50;67.50;;;;;;5052966;28;20100;-68
2022/07/16 04:26:51;;;;;;;6.60;4.57;;;21.40;67.70;;;;;;5053168;28;20032;-70
2022/07/16 04:29:17;;;;;;;7.00;4.43;;;21.50;68.00;;;;;;5052904;28;20029;-68
2022/07/16 04:31:42;;;;;;;8.05;4.78;;;21.40;68.40;;;;;;5051800;28;20075;-70
2022/07/16 04:34:08;;;;;;;8.32;4.88;;;21.40;68.40;;;;;;5052646;28;20025;-69
2022/07/16 04:36:33;;;;;;;6.35;4.60;;;21.40;68.70;;;;;;5039346;28;20049;-68
2022/07/16 04:38:59;;;;;;;5.18;4.45;;;21.40;68.90;;;;;;5046103;28;20028;-68
2022/07/16 04:41:24;;;;;;;6.88;4.32;;;21.50;69.00;;;;;;5047033;28;20099;-68
2022/07/16 04:43:50;;;;;;;5.97;4.30;;;21.50;69.10;;;;;;5052675;28;20070;-69
2022/07/16 04:46:16;;;;;;;5.55;4.65;;;21.40;69.30;;;;;;5052833;28;20020;-68
2022/07/16 04:48:41;;;;;;;10.02;4.95;;;21.30;69.60;;;;;;5051075;28;20106;-68
2022/07/16 04:51:07;;;;;;;7.82;4.15;;;21.40;69.90;;;;;;5051724;28;20415;-68
2022/07/16 04:53:35;;;;;;;9.38;4.35;;;21.40;70.10;;;;;;5051371;28;20504;-69
2022/07/16 04:56:01;;;;;;;10.27;4.85;;;21.50;70.60;;;;;;5053202;28;20745;-68
2022/07/16 04:58:26;;;;;;;7.10;4.43;;;21.40;71.30;;;;;;5050909;28;20029;-68
2022/07/16 05:00:52;;;;;;;6.70;4.03;;;21.40;71.60;;;;;;5048189;28;20025;-69
2022/07/16 05:03:17;;;;;;;5.80;4.22;;;21.40;71.90;;;;;;5048778;28;20029;-68
2022/07/16 05:05:43;;;;;;;7.63;4.13;;;21.40;72.20;;;;;;5051450;28;20543;-68
2022/07/16 05:08:10;;;;;;;6.53;3.78;;;21.30;72.90;;;;;;5050770;28;20033;-68
2022/07/16 05:10:36;;;;;;;7.78;4.15;;;21.40;73.20;;;;;;5040041;28;20033;-68
2022/07/16 05:13:02;;;;;;;8.25;3.95;;;21.50;73.30;;;;;;5044963;28;20071;-68
2022/07/16 05:15:29;;;;;;;6.90;3.33;;;21.50;73.80;;;;;;5056528;28;20020;-69
2022/07/16 05:17:55;;;;;;;5.38;3.40;;;21.50;74.90;;;;;;5056867;28;20075;-69
2022/07/16 05:20:20;;;;;;;5.15;2.90;;;21.50;74.90;;;;;;5042341;28;20009;-69
2022/07/16 05:22:46;;;;;;;5.30;3.22;;;21.40;75.50;;;;;;5036778;28;20462;-70
2022/07/16 05:25:12;;;;;;;4.00;2.47;;;21.50;76.00;;;;;;5036521;28;20071;-69
2022/07/16 05:27:38;;;;;;;5.32;3.13;;;21.50;76.20;;;;;;5041658;28;20470;-68
2022/07/16 05:30:05;;;;;;;5.25;2.53;;;21.50;76.80;;;;;;5055176;28;20066;-68
2022/07/16 05:32:30;;;;;;;3.40;2.72;;;21.60;76.80;;;;;;5050814;28;20053;-69
2022/07/16 05:34:56;;;;;;;7.38;2.97;;;21.60;77.00;;;;;;5037332;28;20111;-68
2022/07/16 05:37:21;;;;;;;5.32;2.80;;;21.60;77.20;;;;;;5036161;28;20063;-68
2022/07/16 05:39:47;;;;;;;5.28;2.67;;;21.60;77.80;;;;;;5036524;28;20083;-69
2022/07/16 05:42:13;;;;;;;5.53;2.10;;;21.50;78.60;;;;;;5036677;28;20057;-69
2022/07/16 05:44:38;;;;;;;8.05;2.33;;;21.50;79.00;;;;;;5039457;28;20014;-70
2022/07/16 05:47:04;;;;;;;3.58;2.38;;;21.60;79.40;;;;;;5056275;28;20470;-70
2022/07/16 05:49:30;;;;;;;3.90;2.33;;;21.60;80.10;;;;;;5036835;28;20102;-70
2022/07/16 05:51:56;;;;;;;4.07;1.77;;;21.70;80.40;;;;;;5036300;28;20021;-68
2022/07/16 05:54:22;;;;;;;3.65;1.90;;;21.70;81.10;;;;;;5036080;28;20451;-70
2022/07/16 05:56:49;;;;;;;3.90;1.70;;;21.80;81.60;;;;;;5053533;28;20029;-69
2022/07/16 05:59:15;;;;;;;6.22;1.88;;;21.90;82.00;;;;;;5055875;28;20035;-69
2022/07/16 06:01:41;;;;;;;3.33;1.42;;;21.90;82.60;;;;;;5054958;28;20017;-68
2022/07/16 06:04:06;;;;;;;3.05;1.42;;;22.00;82.70;;;;;;5054200;28;20036;-68
2022/07/16 06:06:32;;;;;;;8.27;1.50;;;22.00;82.80;;;;;;5036349;28;20022;-68
2022/07/16 06:08:57;;;;;;;5.57;1.00;;;22.10;83.50;;;;;;5037347;28;20033;-68
2022/07/16 06:11:23;;;;;;;5.97;1.17;;;22.20;83.70;;;;;;5035211;28;20490;-68
2022/07/16 06:13:48;;;;;;;3.00;0.80;;;22.30;83.50;;;;;;5046428;28;20033;-68
2022/07/16 06:16:14;;;;;;;3.28;0.80;;;22.30;82.00;;;;;;5042570;28;20045;-68
2022/07/16 06:18:41;;;;;;;6.78;1.08;;;22.40;83.10;;;;;;5035823;28;20029;-69
2022/07/16 06:21:07;;;;;;;25.98;3.42;;;22.40;83.70;;;;;;5032998;28;20387;-67
2022/07/16 06:23:32;;;;;;;4.07;0.82;;;22.40;82.70;;;;;;5036730;28;20025;-67
2022/07/16 06:25:58;;;;;;;4.18;0.68;;;22.30;81.80;;;;;;5035411;28;20032;-67
2022/07/16 06:28:23;;;;;;;2.47;0.82;;;22.10;81.70;;;;;;5036078;28;20041;-67
2022/07/16 06:30:49;;;;;;;3.25;0.50;;;21.90;82.90;;;;;;5035622;28;20028;-67
2022/07/16 06:33:14;;;;;;;4.80;1.08;;;22.00;82.80;;;;;;5035511;28;20043;-67
2022/07/16 06:35:40;;;;;;;1.65;0.70;;;21.90;82.40;;;;;;5035128;28;20034;-66
2022/07/16 06:38:06;;;;;;;2.35;0.77;;;21.80;83.30;;;;;;5034130;28;20044;-67
2022/07/16 06:40:32;;;;;;;4.13;0.73;;;21.90;83.50;;;;;;5035833;28;20064;-67
2022/07/16 06:42:57;;;;;;;3.28;0.82;;;22.10;82.60;;;;;;5035243;28;20030;-67
2022/07/16 06:45:23;;;;;;;3.40;0.70;;;22.20;82.60;;;;;;5038313;28;20025;-67
2022/07/16 06:47:49;;;;;;;2.80;0.80;;;22.10;81.20;;;;;;5055012;28;20052;-67
2022/07/16 06:50:15;;;;;;;2.58;0.88;;;22.10;81.80;;;;;;5055088;28;20083;-67
2022/07/16 06:52:40;;;;;;;2.25;0.77;;;21.90;82.20;;;;;;5036823;28;20034;-67
2022/07/16 06:55:07;;;;;;;4.20;1.00;;;21.90;82.10;;;;;;5034979;28;20022;-67
2022/07/16 06:57:33;;;;;;;1.95;1.00;;;22.00;82.10;;;;;;5034809;28;20030;-67
2022/07/16 06:59:59;;;;;;;4.05;1.00;;;22.00;81.50;;;;;;5041736;28;20496;-67
2022/07/16 07:02:25;;;;;;;2.38;0.88;;;22.20;81.90;;;;;;5050625;28;20040;-67
2022/07/16 07:04:50;;;;;;;4.03;1.20;;;22.40;81.30;;;;;;5037594;28;20029;-68
2022/07/16 07:07:16;;;;;;;3.47;0.90;;;22.70;78.70;;;;;;5034542;28;20578;-71
2022/07/16 07:09:42;;;;;;;2.47;0.63;;;22.90;79.80;;;;;;5042086;28;20059;-68
2022/07/16 07:12:07;;;;;;;2.70;0.70;;;23.00;79.30;;;;;;5043097;28;20063;-69
2022/07/16 07:14:33;;;;;;;3.75;0.70;;;23.10;77.80;;;;;;5044083;28;20026;-68
2022/07/16 07:16:59;;;;;;;2.75;0.70;;;23.20;78.20;;;;;;5038790;28;20029;-70
2022/07/16 07:19:25;;;;;;;3.42;1.00;;;23.30;78.60;;;;;;5039374;28;20025;-68
2022/07/16 07:21:50;;;;;;;5.32;1.20;;;23.40;77.70;;;;;;5044760;28;20037;-68
2022/07/16 07:24:16;;;;;;;1.83;0.70;;;23.50;76.40;;;;;;5046133;28;20052;-68
2022/07/16 07:26:41;;;;;;;2.55;0.80;;;23.60;76.50;;;;;;5051528;28;20052;-67
2022/07/16 07:29:07;;;;;;;3.67;0.77;;;23.70;75.60;;;;;;5039671;28;20025;-68
2022/07/16 07:31:32;;;;;;;2.20;0.60;;;23.70;75.90;;;;;;5038239;28;20116;-68
2022/07/16 07:33:58;;;;;;;2.72;0.70;;;23.70;74.90;;;;;;5038977;28;20017;-69
2022/07/16 07:36:23;;;;;;;2.35;0.50;;;23.70;75.00;;;;;;5040582;28;20115;-69
2022/07/16 07:38:49;;;;;;;3.05;0.90;;;23.90;75.60;;;;;;5037409;28;20022;-69
2022/07/16 07:41:15;;;;;;;4.55;0.70;;;23.90;74.20;;;;;;5040750;28;20753;-69
2022/07/16 07:43:40;;;;;;;1.80;0.70;;;23.90;74.10;;;;;;5044604;28;20044;-69
2022/07/16 07:46:06;;;;;;;2.05;0.60;;;24.00;74.90;;;;;;5041942;28;20021;-69
2022/07/16 07:48:32;;;;;;;1.60;0.70;;;24.10;73.80;;;;;;5046840;28;20035;-69
2022/07/16 07:50:58;;;;;;;3.03;0.90;;;24.00;73.50;;;;;;5047578;28;20053;-71
2022/07/16 07:53:23;;;;;;;1.75;0.60;;;23.70;75.00;;;;;;5053061;28;20384;-71
2022/07/16 07:55:49;;;;;;;2.35;0.52;;;23.70;75.70;;;;;;5046484;28;20482;-70
2022/07/16 07:58:15;;;;;;;3.55;0.50;;;23.50;75.20;;;;;;5056061;28;20067;-69
2022/07/16 08:00:41;;;;;;;2.65;0.68;;;23.60;74.90;;;;;;5044495;28;20024;-69
2022/07/16 08:03:08;;;;;;;2.00;0.70;;;23.60;74.70;;;;;;5033707;28;20063;-70
2022/07/16 08:05:33;;;;;;;2.63;0.68;;;23.60;74.40;;;;;;5058005;28;20025;-69
2022/07/16 08:07:59;;;;;;;2.80;0.60;;;23.70;73.70;;;;;;5055691;28;20029;-70
2022/07/16 08:10:24;;;;;;;2.05;0.82;;;23.50;73.60;;;;;;5059817;28;20354;-69
2022/07/16 08:12:50;;;;;;;1.70;0.50;;;23.40;74.80;;;;;;5054160;28;20040;-72
2022/07/16 08:15:16;;;;;;;3.97;0.60;;;23.50;73.60;;;;;;5051803;28;20079;-70
2022/07/16 08:17:41;;;;;;;1.67;0.40;;;23.30;74.10;;;;;;5056310;28;20033;-70
2022/07/16 08:20:09;;;;;;;4.30;0.93;;;23.50;73.50;;;;;;5060761;28;20469;-70
2022/07/16 08:22:35;;;;;;;2.47;0.70;;;23.60;73.40;;;;;;5056101;28;20051;-69
2022/07/16 08:27:45;;;;;;;2.60;0.73;;;23.70;71.40;;;;;;5059280;28;20047;-69
2022/07/16 08:30:11;;;;;;;2.10;0.45;;;23.60;74.20;;;;;;5055631;28;20017;-70
2022/07/16 08:32:36;;;;;;;2.03;0.63;;;23.80;72.80;;;;;;5046787;28;20068;-68
2022/07/16 08:35:03;;;;;;;1.70;0.47;;;23.60;71.70;;;;;;5048908;28;20036;-69
2022/07/16 08:37:35;;;;;;;2.90;0.60;;;23.70;72.30;;;;;;5054612;28;20044;-70
2022/07/16 08:40:03;;;;;;;;;;;23.50;71.80;;;;;;5049316;28;20108;-70
2022/07/16 08:42:32;;;;;;;2.42;0.63;;;23.50;71.10;;;;;;5049200;28;19913;-70
2022/07/16 08:44:58;;;;;;;4.47;0.50;;;23.70;71.00;;;;;;5040153;28;20111;-69
2022/07/16 08:47:24;;;;;;;1.95;0.50;;;23.80;71.80;;;;;;5054639;28;20588;-70
2022/07/16 08:49:50;;;;;;;2.75;0.82;;;24.00;71.50;;;;;;5052626;28;20049;-71
2022/07/16 08:52:19;;;;;;;3.28;0.77;;;24.10;71.00;;;;;;5058181;28;20029;-70
2022/07/16 08:54:47;;;;;;;1.67;0.60;;;24.10;69.90;;;;;;5044941;28;20398;-69
2022/07/16 08:57:13;;;;;;;2.92;0.80;;;24.30;69.00;;;;;;5055947;28;20036;-69
2022/07/16 08:59:39;;;;;;;6.70;0.70;;;24.20;67.70;;;;;;5055093;28;20013;-69
2022/07/16 09:02:05;;;;;;;2.55;0.90;;;24.20;68.60;;;;;;5043662;28;20413;-68
2022/07/16 09:04:30;;;;;;;4.93;0.85;;;24.30;69.60;;;;;;5052138;28;20013;-70
2022/07/16 09:06:56;;;;;;;3.58;0.60;;;24.30;68.20;;;;;;5032116;28;20045;-70
2022/07/16 09:09:22;;;;;;;2.70;1.02;;;23.80;69.20;;;;;;5054598;28;20021;-70
2022/07/16 09:11:47;;;;;;;2.88;0.70;;;23.80;67.10;;;;;;5058427;28;20467;-70
2022/07/16 09:14:18;;;;;;;3.50;1.00;;;23.50;68.20;;;;;;5049873;28;20053;-69
2022/07/16 09:16:49;;;;;;;2.88;0.70;;;23.70;67.60;;;;;;5041336;28;20418;-69
2022/07/16 09:19:20;;;;;;;2.70;1.00;;;23.90;68.40;;;;;;5055373;28;20044;-70
2022/07/16 09:22:14;;;;;;;2.72;0.75;;;23.90;65.20;;;;;;5041252;28;20596;-70
2022/07/16 09:24:44;;;;;;;1.65;0.60;;;24.00;64.30;;;;;;5040707;28;20033;-69
2022/07/16 09:27:14;;;;;;;2.33;0.60;;;24.10;63.10;;;;;;5043850;28;20546;-70
2022/07/16 09:29:50;;;;;;;2.25;0.65;;;23.70;62.70;;;;;;5035799;28;20539;-69
2022/07/16 09:32:27;;;;;;;2.60;0.60;;;23.60;62.90;;;;;;5039054;28;20029;-69
2022/07/16 09:35:08;;;;;;;2.45;0.68;;;23.40;64.60;;;;;;5033265;28;20049;-70
2022/07/16 09:37:56;;;;;;;3.15;0.77;;;23.30;63.40;;;;;;5035065;28;20512;-70
2022/07/16 09:40:33;;;;;;;2.83;0.70;;;23.60;65.70;;;;;;5039494;28;20032;-68
2022/07/16 09:43:04;;;;;;;2.85;0.70;;;23.70;61.30;;;;;;5035389;28;20037;-68
2022/07/16 09:45:30;;;;;;;1.67;0.60;;;23.90;63.10;;;;;;5043622;28;20051;-68
2022/07/16 09:47:55;;;;;;;2.58;0.50;;;23.80;60.90;;;;;;5038037;28;20041;-69
2022/07/16 09:50:22;;;;;;;3.10;0.40;;;23.90;60.70;;;;;;5047958;28;20032;-68
2022/07/16 09:52:47;;;;;;;2.72;0.60;;;23.90;60.90;;;;;;5042983;28;20036;-68
2022/07/16 09:55:13;;;;;;;2.33;0.50;;;24.10;61.00;;;;;;5050703;28;20424;-69
2022/07/16 09:57:41;;;;;;;2.10;0.43;;;24.00;61.80;;;;;;5037619;28;20034;-69
2022/07/16 10:00:07;;;;;;;3.15;0.57;;;24.10;61.60;;;;;;5050435;28;20489;-69
2022/07/16 10:02:33;;;;;;;1.42;0.47;;;24.10;63.60;;;;;;5053264;28;20444;-70
2022/07/16 10:04:59;;;;;;;2.67;0.80;;;24.10;61.50;;;;;;5053112;28;20021;-69
2022/07/16 10:07:25;;;;;;;2.55;0.63;;;23.90;62.10;;;;;;5045432;28;20067;-70
2022/07/16 10:09:51;;;;;;;3.80;0.55;;;23.90;61.80;;;;;;5067462;28;20020;-68
2022/07/16 10:12:19;;;;;;;1.60;0.50;;;24.00;62.90;;;;;;5046494;28;20037;-68
2022/07/16 10:14:48;;;;;;;1.48;0.38;;;23.80;60.20;;;;;;5049818;28;20050;-69
2022/07/16 10:17:20;;;;;;;2.42;0.60;;;24.10;60.30;;;;;;5061312;28;20029;-70
2022/07/16 10:19:56;;;;;;;4.45;0.60;;;23.90;60.90;;;;;;5064987;28;20486;-69
2022/07/16 10:22:29;;;;;;;2.47;0.40;;;23.80;60.00;;;;;;5048624;28;20033;-69
2022/07/16 10:24:56;;;;;;;1.25;0.60;;;23.80;61.70;;;;;;5046897;28;20127;-69
2022/07/16 10:27:25;;;;;;;1.50;0.60;;;23.80;59.20;;;;;;5044648;28;20032;-69
2022/07/16 10:30:14;;;;;;;2.53;0.63;;;23.80;60.10;;;;;;5039510;28;20028;-68
2022/07/16 10:32:58;;;;;;;2.17;0.63;;;23.80;63.20;;;;;;5035016;28;20035;-69
2022/07/16 10:35:33;;;;;;;2.20;0.50;;;23.70;61.20;;;;;;5043822;28;20079;-69
2022/07/16 10:38:08;;;;;;;1.98;0.65;;;23.80;59.00;;;;;;5037246;28;20075;-68
2022/07/16 10:40:36;;;;;;;2.20;0.55;;;23.70;58.60;;;;;;5035221;28;20021;-68
2022/07/16 10:43:21;;;;;;;2.75;0.50;;;24.10;59.00;;;;;;5040922;28;20036;-69
2022/07/16 10:45:59;;;;;;;2.25;0.68;;;24.30;59.10;;;;;;5039559;28;20154;-68
2022/07/16 10:48:29;;;;;;;1.30;0.55;;;24.50;59.60;;;;;;5038513;28;20028;-67
2022/07/16 10:51:11;;;;;;;2.55;0.80;;;24.60;60.10;;;;;;5044217;28;20037;-70
2022/07/16 10:54:02;;;;;;;12.93;6.55;;;24.60;60.60;;;;;;5041516;28;20017;-68
2022/07/16 10:56:39;;;;;;;7.75;5.07;;;24.70;60.20;;;;;;5039498;28;20033;-68
2022/07/16 10:59:07;;;;;;;14.05;8.18;;;24.70;60.50;;;;;;5040580;28;20033;-70
2022/07/16 11:01:38;;;;;;;19.50;11.30;;;24.80;61.90;;;;;;5036864;28;20021;-70
2022/07/16 11:04:05;;;;;;;14.80;8.48;;;24.80;63.20;;;;;;5049195;28;20029;-70
2022/07/16 11:06:32;;;;;;;33.50;20.17;;;24.80;67.10;;;;;;5046359;28;20040;-70
2022/07/16 11:09:00;;;;;;;28.00;16.10;;;24.90;71.90;;;;;;5048872;28;20022;-70
2022/07/16 11:11:37;;;;;;;11.27;6.88;;;24.90;71.40;;;;;;5045319;28;20033;-68
2022/07/16 11:14:03;;;;;;;20.88;12.32;;;24.90;65.30;;;;;;5033969;28;20439;-68
2022/07/16 11:16:29;;;;;;;35.70;22.92;;;24.90;68.00;;;;;;5045050;28;20120;-70
2022/07/16 11:18:58;;;;;;;17.02;9.88;;;24.90;77.60;;;;;;5040927;28;20027;-70
2022/07/16 11:21:23;;;;;;;34.10;21.02;;;25.00;65.80;;;;;;5048924;28;20022;-69
2022/07/16 11:23:54;;;;;;;26.20;16.27;;;25.00;78.00;;;;;;5038955;28;20031;-67
2022/07/16 11:26:21;;;;;;;14.25;8.07;;;25.00;76.50;;;;;;5043155;28;20021;-67
2022/07/16 11:29:02;;;;;;;21.83;12.90;;;25.10;67.20;;;;;;5046901;28;20036;-68
2022/07/16 11:31:36;;;;;;;4.25;1.98;;;25.10;72.50;;;;;;5039396;28;20021;-70
2022/07/16 11:34:06;;;;;;;3.10;0.80;;;25.00;60.10;;;;;;5045931;28;20032;-69
2022/07/16 11:36:44;;;;;;;7.03;4.28;;;25.00;58.20;;;;;;5049335;28;20021;-67
2022/07/16 11:39:15;;;;;;;18.55;11.05;;;24.90;60.70;;;;;;5044227;28;20078;-67
2022/07/16 11:41:43;;;;;;;12.77;6.90;;;24.90;66.00;;;;;;5049723;28;20015;-68
2022/07/16 11:44:09;;;;;;;8.45;5.22;;;25.00;66.60;;;;;;5042769;28;20108;-68
2022/07/16 11:46:45;;;;;;;11.93;5.57;;;25.00;65.20;;;;;;5044056;28;20029;-70
2022/07/16 11:49:19;;;;;;;4.93;2.47;;;25.00;62.20;;;;;;5036390;28;20051;-68
2022/07/16 11:51:46;;;;;;;9.10;5.43;;;24.90;59.50;;;;;;5038602;28;20021;-67
2022/07/16 11:54:11;;;;;;;4.40;2.65;;;24.90;61.70;;;;;;5048061;28;20444;-69
2022/07/16 11:56:39;;;;;;;8.20;3.85;;;25.00;59.40;;;;;;5049407;28;20547;-70
2022/07/16 11:59:25;;;;;;;4.32;2.25;;;25.00;60.90;;;;;;5034301;28;20034;-69
2022/07/16 12:02:13;;;;;;;1.73;0.70;;;25.00;57.40;;;;;;5039202;28;20021;-69
2022/07/16 12:04:44;;;;;;;3.78;2.15;;;25.00;56.10;;;;;;5036679;28;20198;-69
2022/07/16 12:07:16;;;;;;;4.90;2.50;;;25.00;58.30;;;;;;5037564;28;20164;-68
2022/07/16 12:09:44;;;;;;;4.10;1.75;;;25.10;58.40;;;;;;5050029;28;20100;-69
2022/07/16 12:12:12;;;;;;;3.78;1.65;;;25.10;59.00;;;;;;5041148;28;20017;-69
2022/07/16 12:15:05;;;;;;;2.55;0.88;;;25.10;57.70;;;;;;5040580;28;20024;-70
2022/07/16 12:17:39;;;;;;;2.78;0.75;;;25.10;56.90;;;;;;5029648;28;20053;-69
2022/07/16 12:20:15;;;;;;;3.38;0.88;;;25.10;57.00;;;;;;5038172;28;20021;-68
2022/07/16 12:22:51;;;;;;;2.00;0.82;;;25.10;58.20;;;;;;5035771;28;20044;-68
2022/07/16 12:25:19;;;;;;;2.20;0.88;;;25.00;57.30;;;;;;5039724;28;20174;-69
2022/07/16 12:27:50;;;;;;;1.92;0.60;;;25.00;57.70;;;;;;5045657;28;20104;-67
2022/07/16 12:30:16;;;;;;;3.93;1.10;;;25.00;57.30;;;;;;5038809;28;20025;-68
2022/07/16 12:32:52;;;;;;;3.58;0.77;;;25.10;58.50;;;;;;5042216;28;20029;-67
2022/07/16 12:35:41;;;;;;;2.72;0.82;;;25.10;58.00;;;;;;5040724;28;20067;-68
2022/07/16 12:38:09;;;;;;;3.92;0.88;;;25.10;57.00;;;;;;5034109;28;20462;-68
2022/07/16 12:40:36;;;;;;;3.17;0.73;;;25.10;57.90;;;;;;5038404;28;20045;-68
2022/07/16 12:43:02;;;;;;;4.25;1.25;;;25.10;57.60;;;;;;5037619;28;20029;-67
2022/07/16 12:45:29;;;;;;;3.30;0.57;;;25.10;57.90;;;;;;5036865;28;20071;-68
2022/07/16 12:47:55;;;;;;;1.88;1.27;;;24.90;56.30;;;;;;5041481;28;20024;-69
2022/07/16 12:50:21;;;;;;;6.20;3.13;;;24.90;60.10;;;;;;5048996;28;20025;-70
2022/07/16 12:52:46;;;;;;;4.30;1.80;;;25.00;62.70;;;;;;5043179;28;20040;-69
2022/07/16 13:00:40;;;;;;;2.00;0.90;;;25.00;57.90;;;;;;5041742;28;20167;-68
2022/07/16 13:03:06;;;;;;;3.50;0.80;;;24.90;58.10;;;;;;5044720;28;20112;-68